Berrien Springs, MI (49103)

4:15 AM EDT on August 25, 2016 (GMT -0400)
Cole Farm | | Change Station

Elev 725 ft 41.94 °N, 86.41 °W | Updated 1 minute ago

Light Rain
Light Rain
72.9 °F
Feels Like 72.9 °F
N
5.4
Wind Variable Wind from SW
Gusts 5.4 mph

Today
High -- | Low -- °F
--% Chance of Precip.
Yesterday
High -- | Low -- °F
Precip. -- in
Pressure 29.96 in
Visibility 9.0 miles
Clouds Scattered Clouds 4000 ft
Dew Point 71 °F
Humidity 94%
Rainfall 0.00 in
Snow Depth Not available.
7:04 AM 8:29 PM
Waning Gibbous, 48% visible
METAR KBEH 250753Z AUTO 22010KT 9SM -RA SCT040 25/21 A2997 RMK AO2 RAB39 SLP144 P0001 T02500211
Pressure 29.96 in
Visibility 9.0 miles
Clouds Scattered Clouds 4000 ft
Dew Point 71 °F
Humidity 94%
Rainfall 0.00 in
Snow Depth Not available.
7:04 AM 8:29 PM
Waning Gibbous, 48% visible
METAR KBEH 250753Z AUTO 22010KT 9SM -RA SCT040 25/21 A2997 RMK AO2 RAB39 SLP144 P0001 T02500211

10-Day Weather Forecast

Almanac

Astronomy

Aug. 25, 2016 Rise Set
Actual Time
Civil Twilight
Nautical Twilight
Astronomical Twilight
Moon
Length of Visible Light
Length of Day
Tomorrow will be .
, % of the Moon is Illuminated

Today's Extremes

State Highs State Lows

Community

WunderPhotos

Upload Photos

1,934,814 photos uploaded!

WunderBlog® & News

Nearby

Air Quality

  Air Quality AQ Index Pollutant
Not available.

Snow Depth

Station Depth Elevation

Earthquake Activity

City Distance Mag. Time & Date
Minimum magnitude displayed is 2.5.

Coastal Water Temperatures

Place Temperature

Stations

Nearby Weather Stations

Station Location Temp. Windchill Dew Point Humidity Wind Precip. Elev Updated Type
                   

Watches & Warnings

There are currently no watches in effect.